Time;durP1;ratioP1;P1;durP2;ratioP2;P2;SDS_P1;SDS_P2;PMS_P1;PMS_P2;Temp;Humidity;BMP_temperature;BMP_pressure;BME280_temperature;BME280_humidity;BME280_pressure;Samples;Min_cycle;Max_cycle;Signal;HPM_P1;HPM_P2
2023/12/30 00:01:07;;;;;;;4.88;1.80;;;;;;;6.41;95.46;97981.44;4990755;28;20056;-79
2023/12/30 00:03:32;;;;;;;3.47;1.42;;;;;;;6.55;95.10;97987.22;4994923;28;20049;-80
2023/12/30 00:05:59;;;;;;;8.38;1.48;;;;;;;6.46;94.68;97986.84;4995967;28;20044;-79
2023/12/30 00:08:24;;;;;;;7.18;1.90;;;;;;;6.47;94.83;97995.56;4994928;28;20053;-77
2023/12/30 00:10:50;;;;;;;3.80;1.33;;;;;;;6.47;95.44;97983.13;4995978;28;20022;-78
2023/12/30 00:13:15;;;;;;;3.92;1.60;;;;;;;6.43;95.52;97991.81;4990048;28;20039;-79
2023/12/30 00:15:41;;;;;;;1.75;1.60;;;;;;;6.45;95.57;98002.97;5004164;28;20117;-77
2023/12/30 00:18:06;;;;;;;6.15;2.10;;;;;;;6.45;95.26;98005.59;4988565;28;20045;-76
2023/12/30 00:20:31;;;;;;;4.40;1.60;;;;;;;6.33;95.56;97986.34;4989025;28;20030;-77
2023/12/30 00:22:57;;;;;;;8.13;2.03;;;;;;;6.39;95.68;97993.34;4986572;28;20033;-77
2023/12/30 00:25:22;;;;;;;4.47;1.38;;;;;;;6.42;95.37;98000.81;4986275;28;20048;-77
2023/12/30 00:27:49;;;;;;;5.60;1.75;;;;;;;6.42;95.76;97996.28;4991335;28;20117;-77
2023/12/30 00:30:14;;;;;;;5.30;2.22;;;;;;;6.48;95.70;97994.53;4988676;28;20406;-77
2023/12/30 00:32:40;;;;;;;2.22;1.60;;;;;;;6.48;95.09;97997.19;4988704;28;20027;-77
2023/12/30 00:35:08;;;;;;;2.05;1.55;;;;;;;6.33;96.05;97999.63;4987828;28;20030;-77
2023/12/30 00:37:34;;;;;;;6.82;1.85;;;;;;;6.33;96.19;97983.72;4987546;28;20133;-77
2023/12/30 00:40:00;;;;;;;3.85;2.25;;;;;;;6.31;94.86;97986.59;4986179;28;20105;-77
2023/12/30 00:42:25;;;;;;;2.60;1.80;;;;;;;6.42;95.39;98003.47;4985235;28;20056;-77
2023/12/30 00:44:51;;;;;;;7.63;1.88;;;;;;;6.42;94.95;98011.41;4988412;28;20041;-77
2023/12/30 00:47:17;;;;;;;4.78;2.00;;;;;;;6.27;95.46;98004.00;4986947;28;20461;-77
2023/12/30 00:49:42;;;;;;;10.50;2.15;;;;;;;6.37;95.17;98013.97;4981817;28;20031;-76
2023/12/30 00:52:08;;;;;;;2.05;1.67;;;;;;;6.36;95.02;98010.50;4988495;28;20030;-76
2023/12/30 00:54:33;;;;;;;7.38;2.80;;;;;;;6.36;95.30;98015.00;4987792;28;20040;-77
2023/12/30 00:56:58;;;;;;;4.68;2.38;;;;;;;6.43;94.82;98016.47;4991520;28;20037;-77
2023/12/30 00:59:24;;;;;;;3.90;2.00;;;;;;;6.24;94.54;98003.69;4981250;28;20134;-78
2023/12/30 01:01:49;;;;;;;6.97;2.22;;;;;;;6.26;94.28;98033.41;4982307;28;20037;-77
2023/12/30 01:04:14;;;;;;;4.28;1.80;;;;;;;6.30;94.40;98023.94;4988266;28;20062;-77
2023/12/30 01:06:40;;;;;;;3.50;1.77;;;;;;;6.38;94.18;98026.16;4989497;28;20068;-77
2023/12/30 01:09:05;;;;;;;8.38;2.58;;;;;;;6.33;94.62;98018.16;4990642;28;20757;-77
2023/12/30 01:11:30;;;;;;;4.82;2.90;;;;;;;6.31;94.05;98020.25;4988826;28;20026;-77
2023/12/30 01:13:56;;;;;;;3.08;1.98;;;;;;;6.30;94.42;98021.28;4990147;28;20088;-77
2023/12/30 01:16:21;;;;;;;6.00;2.58;;;;;;;6.21;94.51;98035.97;4991097;28;20506;-77
2023/12/30 01:18:47;;;;;;;7.63;2.13;;;;;;;6.05;93.70;98016.38;4990139;28;20081;-79
2023/12/30 01:21:12;;;;;;;7.13;2.03;;;;;;;6.21;94.41;98025.38;4986707;28;20050;-77
2023/12/30 01:23:37;;;;;;;6.15;3.70;;;;;;;6.22;94.04;98019.84;4988374;28;20479;-77
2023/12/30 01:26:03;;;;;;;7.82;2.58;;;;;;;6.19;94.59;98030.09;4990686;28;20022;-77
2023/12/30 01:28:28;;;;;;;5.75;3.33;;;;;;;6.14;93.98;98030.81;4989960;28;20034;-77
2023/12/30 01:30:53;;;;;;;3.90;2.40;;;;;;;6.10;94.10;98035.00;4989685;28;20380;-77
2023/12/30 01:33:19;;;;;;;2.35;2.05;;;;;;;6.22;93.78;98037.59;4992075;28;20038;-78
2023/12/30 01:35:44;;;;;;;8.20;2.65;;;;;;;6.21;94.36;98036.78;4989531;28;20038;-77
2023/12/30 01:38:10;;;;;;;4.00;1.85;;;;;;;6.26;93.83;98038.72;4988565;28;20081;-79
2023/12/30 01:40:35;;;;;;;6.25;1.92;;;;;;;6.08;93.86;98039.72;4988182;28;20034;-77
2023/12/30 01:43:02;;;;;;;4.32;2.33;;;;;;;6.22;93.54;98053.47;4989500;28;20034;-77
2023/12/30 01:45:28;;;;;;;6.07;2.28;;;;;;;6.28;93.72;98055.97;4985773;28;20038;-77
2023/12/30 01:47:54;;;;;;;6.07;2.22;;;;;;;6.31;93.15;98058.13;4988923;28;20403;-77
2023/12/30 01:50:21;;;;;;;6.45;2.45;;;;;;;6.23;94.20;98060.38;4986303;28;20422;-77
2023/12/30 01:52:47;;;;;;;4.38;2.15;;;;;;;6.21;93.72;98079.16;4983575;28;20042;-77
2023/12/30 01:55:14;;;;;;;4.05;2.38;;;;;;;6.23;93.91;98086.88;4988721;28;20077;-78
2023/12/30 01:57:40;;;;;;;3.55;2.10;;;;;;;6.31;93.62;98092.56;4988487;28;20049;-77
2023/12/30 02:00:07;;;;;;;10.75;2.50;;;;;;;6.35;93.86;98101.69;4987232;28;20027;-77
2023/12/30 02:02:32;;;;;;;2.83;2.13;;;;;;;6.34;93.93;98099.25;4986769;28;20025;-77
2023/12/30 02:04:58;;;;;;;7.05;2.08;;;;;;;6.36;93.22;98099.81;4971160;28;20030;-77
2023/12/30 02:07:24;;;;;;;7.38;2.13;;;;;;;6.18;93.88;98070.91;4985153;28;20082;-77
2023/12/30 02:09:50;;;;;;;4.75;2.30;;;;;;;6.28;94.08;98095.72;4990475;28;20034;-77
2023/12/30 02:12:15;;;;;;;7.15;2.67;;;;;;;6.30;93.92;98093.63;4985370;28;20081;-77
2023/12/30 02:14:40;;;;;;;6.28;2.15;;;;;;;6.32;93.80;98098.69;4990207;28;20045;-78
2023/12/30 02:17:06;;;;;;;5.85;2.20;;;;;;;6.22;94.16;98096.69;4988613;28;20364;-78
2023/12/30 02:19:33;;;;;;;3.13;1.60;;;;;;;6.05;94.14;98085.22;4989902;28;20042;-78
2023/12/30 02:21:58;;;;;;;4.97;1.80;;;;;;;6.09;94.44;98125.31;4988612;28;20561;-78
2023/12/30 02:24:24;;;;;;;8.38;2.78;;;;;;;6.13;93.98;98127.25;4989930;28;20062;-78
2023/12/30 02:26:49;;;;;;;7.13;1.95;;;;;;;5.99;94.15;98107.38;4985680;28;20038;-78
2023/12/30 02:29:15;;;;;;;5.07;1.92;;;;;;;6.07;94.60;98127.41;4985095;28;20030;-78
2023/12/30 02:31:46;;;;;;;7.45;1.73;;;;;;;6.13;94.55;98126.44;4990376;28;20120;-78
2023/12/30 02:34:16;;;;;;;7.53;2.33;;;;;;;6.07;94.24;98127.41;4988577;28;20460;-78
2023/12/30 02:36:43;;;;;;;3.78;2.00;;;;;;;6.18;94.03;98127.31;4988170;28;20059;-77
2023/12/30 02:39:09;;;;;;;11.90;3.20;;;;;;;6.12;93.94;98130.13;4987882;28;20168;-78
2023/12/30 02:41:35;;;;;;;8.32;2.38;;;;;;;6.15;93.84;98141.06;4985717;28;20081;-78
2023/12/30 02:44:02;;;;;;;7.15;3.97;;;;;;;5.93;93.23;98135.63;4986141;28;20461;-78
2023/12/30 02:46:27;;;;;;;5.63;2.63;;;;;;;6.06;94.66;98145.13;4984755;28;20483;-78
2023/12/30 02:48:52;;;;;;;5.78;2.50;;;;;;;6.07;93.59;98152.06;5007358;28;20042;-78
2023/12/30 02:51:19;;;;;;;5.63;2.35;;;;;;;6.24;94.07;98152.91;5006285;28;20030;-78
2023/12/30 02:53:44;;;;;;;2.70;2.03;;;;;;;6.15;93.99;98151.66;4988612;28;20124;-77
2023/12/30 02:56:24;;;;;;;4.57;2.58;;;;;;;6.26;94.45;98160.59;4989495;28;20554;-78
2023/12/30 02:59:07;;;;;;;6.78;2.97;;;;;;;6.02;93.59;98165.19;4986856;28;20034;-78
2023/12/30 03:01:33;;;;;;;7.38;2.55;;;;;;;5.73;93.85;98176.75;5008989;23;20117;-78
2023/12/30 03:04:00;;;;;;;3.30;1.55;;;;;;;6.03;95.47;98195.91;4985556;28;20478;-78
2023/12/30 03:06:27;;;;;;;2.38;1.42;;;;;;;5.90;95.28;98194.34;4989590;28;20085;-78
2023/12/30 03:08:53;;;;;;;2.38;1.63;;;;;;;5.98;93.52;98182.59;4982748;28;20444;-78
2023/12/30 03:11:19;;;;;;;3.72;1.67;;;;;;;5.86;93.81;98190.56;4994952;28;20054;-79
2023/12/30 03:13:44;;;;;;;4.57;2.00;;;;;;;5.47;94.00;98179.91;4985816;28;20073;-78
2023/12/30 03:16:11;;;;;;;8.30;2.30;;;;;;;5.95;94.27;98183.06;4989859;28;20465;-77
2023/12/30 03:18:40;;;;;;;4.10;1.75;;;;;;;5.74;92.81;98183.66;4971158;28;20122;-78
2023/12/30 03:21:08;;;;;;;1.98;1.80;;;;;;;5.75;93.35;98185.25;4988971;28;20109;-78
2023/12/30 03:23:35;;;;;;;3.45;1.60;;;;;;;5.60;92.24;98183.09;4992910;28;20069;-78
2023/12/30 03:26:01;;;;;;;2.95;2.20;;;;;;;5.94;93.24;98200.78;4990449;28;20497;-79
2023/12/30 03:28:27;;;;;;;8.90;2.15;;;;;;;5.93;92.24;98201.03;4988046;28;20038;-78
2023/12/30 03:30:52;;;;;;;2.55;1.95;;;;;;;5.98;92.21;98193.19;4990081;28;20045;-78
2023/12/30 03:33:18;;;;;;;2.92;2.10;;;;;;;5.83;92.35;98200.81;4991671;28;20031;-78
2023/12/30 03:35:43;;;;;;;5.18;2.20;;;;;;;5.97;91.83;98212.75;4989329;28;20042;-77
2023/12/30 03:38:09;;;;;;;3.45;2.05;;;;;;;5.78;92.12;98200.69;4988977;28;20030;-79
2023/12/30 03:40:34;;;;;;;3.78;2.08;;;;;;;5.91;91.96;98216.34;4989271;28;20101;-80
2023/12/30 03:43:00;;;;;;;2.35;1.50;;;;;;;5.84;92.44;98203.25;4994231;28;20026;-79
2023/12/30 03:45:26;;;;;;;4.40;2.03;;;;;;;5.73;91.90;98233.16;4986188;28;20030;-79
2023/12/30 03:47:52;;;;;;;3.40;2.10;;;;;;;5.68;91.99;98216.38;4992204;28;20486;-79
2023/12/30 03:50:18;;;;;;;1.85;1.70;;;;;;;5.72;91.97;98207.69;4990606;28;20030;-79
2023/12/30 03:52:43;;;;;;;4.43;2.58;;;;;;;5.66;92.25;98223.72;4991148;28;20039;-79
2023/12/30 03:55:09;;;;;;;4.65;1.88;;;;;;;5.82;91.90;98221.16;4990740;28;20026;-78
2023/12/30 03:57:34;;;;;;;3.53;2.15;;;;;;;5.74;91.45;98236.63;4990288;28;20038;-80
2023/12/30 04:00:00;;;;;;;5.53;2.42;;;;;;;5.83;91.61;98243.94;4973921;28;20034;-78
2023/12/30 04:02:26;;;;;;;5.90;2.30;;;;;;;5.51;91.96;98239.25;4983044;28;20562;-80
2023/12/30 04:04:51;;;;;;;4.47;2.10;;;;;;;5.49;92.54;98228.09;4996041;28;20065;-80
2023/12/30 04:07:16;;;;;;;5.53;3.00;;;;;;;5.65;91.92;98230.88;4992855;28;20053;-79
2023/12/30 04:09:42;;;;;;;6.82;2.22;;;;;;;5.73;91.53;98225.22;4988402;28;20038;-79
2023/12/30 04:12:07;;;;;;;3.25;2.20;;;;;;;5.70;91.59;98232.81;4988491;28;20039;-79
2023/12/30 04:14:32;;;;;;;6.25;2.53;;;;;;;5.73;91.14;98235.81;4985322;28;20034;-79
2023/12/30 04:16:58;;;;;;;3.53;2.13;;;;;;;5.78;91.57;98233.28;4970450;28;20023;-80
2023/12/30 04:19:24;;;;;;;3.78;2.20;;;;;;;5.55;91.41;98245.72;4966641;28;20085;-80
2023/12/30 04:21:49;;;;;;;8.77;2.25;;;;;;;5.59;91.13;98241.56;4968340;28;20061;-80
2023/12/30 04:24:15;;;;;;;5.25;2.50;;;;;;;5.68;91.74;98240.97;4989728;28;20447;-80
2023/12/30 04:26:41;;;;;;;5.05;2.47;;;;;;;5.74;91.25;98236.63;4984540;28;20114;-79
2023/12/30 04:29:06;;;;;;;4.65;2.60;;;;;;;5.65;91.18;98238.00;4986387;28;20030;-80
2023/12/30 04:31:32;;;;;;;3.92;2.40;;;;;;;5.57;91.17;98231.19;4972178;28;20086;-78
2023/12/30 04:33:57;;;;;;;5.30;2.70;;;;;;;5.64;91.14;98226.59;4986177;28;20069;-78
2023/12/30 04:36:23;;;;;;;7.60;2.13;;;;;;;5.60;91.32;98230.75;4967267;28;20026;-80
2023/12/30 04:38:48;;;;;;;7.57;2.85;;;;;;;5.67;90.77;98241.22;4985850;28;20551;-79
2023/12/30 04:41:14;;;;;;;4.78;3.33;;;;;;;5.56;90.86;98234.09;4986440;28;20113;-78
2023/12/30 04:43:39;;;;;;;7.40;2.65;;;;;;;5.32;90.44;98222.72;4988872;28;20027;-78
2023/12/30 04:46:04;;;;;;;3.70;2.40;;;;;;;5.46;91.33;98228.59;4980241;28;20032;-79
2023/12/30 04:48:30;;;;;;;3.22;2.72;;;;;;;5.36;91.25;98226.50;4990905;28;20030;-79
2023/12/30 04:50:56;;;;;;;5.55;3.33;;;;;;;5.45;90.86;98227.78;4982533;28;20572;-79
2023/12/30 04:53:21;;;;;;;8.40;2.53;;;;;;;5.55;90.58;98245.72;4991501;28;20120;-79
2023/12/30 04:55:46;;;;;;;6.75;2.75;;;;;;;5.52;90.45;98247.00;4989809;28;20038;-80
2023/12/30 04:58:12;;;;;;;12.55;3.22;;;;;;;5.45;90.09;98240.19;4987169;28;20177;-81
2023/12/30 05:00:38;;;;;;;5.75;3.05;;;;;;;5.51;91.04;98248.00;4986734;28;20122;-78
2023/12/30 05:03:03;;;;;;;4.65;2.53;;;;;;;5.49;90.82;98255.38;4992875;28;20033;-79
2023/12/30 05:05:29;;;;;;;5.90;2.28;;;;;;;5.44;90.31;98255.25;4982309;28;20027;-79
2023/12/30 05:07:54;;;;;;;3.83;2.35;;;;;;;5.41;90.33;98253.09;4990035;28;20030;-79
2023/12/30 05:10:19;;;;;;;3.35;2.20;;;;;;;5.47;89.75;98254.00;4975700;28;20053;-80
2023/12/30 05:12:45;;;;;;;7.32;2.30;;;;;;;5.41;90.81;98254.91;4988881;28;20030;-79
2023/12/30 05:15:13;;;;;;;4.72;2.30;;;;;;;5.40;90.98;98256.75;4974345;28;20117;-80
2023/12/30 05:17:38;;;;;;;5.63;3.10;;;;;;;5.37;91.00;98245.84;4987290;28;20081;-79
2023/12/30 05:20:07;;;;;;;10.02;3.08;;;;;;;5.53;90.46;98259.16;4985768;28;20746;-78
2023/12/30 05:22:33;;;;;;;4.43;2.92;;;;;;;5.39;90.07;98260.44;4992152;28;20088;-79
2023/12/30 05:24:58;;;;;;;3.80;2.90;;;;;;;5.51;89.85;98271.03;4996103;28;20550;-78
2023/12/30 05:27:23;;;;;;;5.65;2.78;;;;;;;5.05;90.19;98263.84;4989553;28;20041;-79
2023/12/30 05:29:49;;;;;;;3.97;2.33;;;;;;;5.25;90.46;98270.44;4970657;28;20435;-79
2023/12/30 05:32:14;;;;;;;7.45;3.05;;;;;;;5.39;90.19;98273.69;4989454;28;20129;-78
2023/12/30 05:34:39;;;;;;;6.50;2.83;;;;;;;5.17;91.81;98278.72;4970968;28;20124;-80
2023/12/30 05:37:05;;;;;;;5.03;3.45;;;;;;;5.32;90.50;98275.63;4988709;28;20030;-79
2023/12/30 05:39:30;;;;;;;8.05;2.63;;;;;;;5.41;91.06;98276.09;4990428;28;20026;-78
2023/12/30 05:41:56;;;;;;;6.95;2.78;;;;;;;5.44;90.23;98267.69;4986726;28;20045;-80
2023/12/30 05:44:21;;;;;;;2.85;2.40;;;;;;;5.25;90.71;98275.72;4992560;28;20065;-79
2023/12/30 05:46:47;;;;;;;6.47;3.25;;;;;;;5.38;90.22;98263.31;4980416;28;20085;-79
2023/12/30 05:49:12;;;;;;;7.03;2.35;;;;;;;5.47;90.28;98269.88;4986785;28;20041;-77
2023/12/30 05:51:42;;;;;;;5.78;2.65;;;;;;;5.50;89.64;98282.66;4988254;28;20113;-80
2023/12/30 05:54:10;;;;;;;6.03;2.72;;;;;;;5.29;90.64;98276.88;4991574;28;20121;-80
2023/12/30 05:56:35;;;;;;;3.38;3.03;;;;;;;5.42;89.97;98286.44;4990351;28;20088;-79
2023/12/30 05:59:01;;;;;;;4.72;2.60;;;;;;;5.11;89.70;98284.91;4987553;28;20482;-80
2023/12/30 06:01:26;;;;;;;9.90;3.58;;;;;;;5.25;90.29;98291.59;4989475;28;20625;-78
2023/12/30 06:03:52;;;;;;;6.82;2.42;;;;;;;5.13;89.93;98292.63;4986339;28;20034;-77
2023/12/30 06:06:17;;;;;;;6.40;2.15;;;;;;;5.40;91.13;98306.22;4984794;28;20097;-77
2023/12/30 06:08:42;;;;;;;8.00;2.83;;;;;;;5.21;90.70;98297.56;4984217;28;20073;-80
2023/12/30 06:11:08;;;;;;;9.77;3.17;;;;;;;5.23;90.68;98301.63;4988380;28;20034;-78
2023/12/30 06:13:34;;;;;;;4.72;2.65;;;;;;;5.24;90.67;98305.84;4986416;28;20034;-78
2023/12/30 06:15:59;;;;;;;8.10;3.20;;;;;;;5.09;90.81;98302.84;4988994;28;20026;-78
2023/12/30 06:18:30;;;;;;;5.28;2.22;;;;;;;5.11;90.20;98306.06;4987173;28;20360;-79
2023/12/30 06:20:56;;;;;;;6.55;3.20;;;;;;;5.17;91.09;98302.53;4985852;28;20074;-78
2023/12/30 06:23:22;;;;;;;9.35;2.75;;;;;;;5.13;90.58;98304.00;4985925;28;20038;-77
2023/12/30 06:25:47;;;;;;;4.25;2.45;;;;;;;5.04;91.49;98315.13;4970474;28;20122;-78
2023/12/30 06:28:12;;;;;;;9.63;2.45;;;;;;;5.19;90.93;98310.22;4981171;28;20054;-78
2023/12/30 06:30:37;;;;;;;8.27;3.40;;;;;;;5.19;90.79;98307.59;4988892;28;20046;-79
2023/12/30 06:33:06;;;;;;;3.70;2.53;;;;;;;5.31;91.19;98301.28;4987592;28;20030;-80
2023/12/30 06:35:35;;;;;;;5.53;2.70;;;;;;;5.30;90.44;98312.09;4983365;28;20717;-78
2023/12/30 06:38:00;;;;;;;6.05;2.88;;;;;;;5.37;91.08;98312.81;4990305;28;20043;-77
2023/12/30 06:40:27;;;;;;;8.40;2.72;;;;;;;5.45;89.73;98319.59;4989545;28;20093;-78
2023/12/30 06:42:52;;;;;;;7.65;2.85;;;;;;;5.26;89.71;98310.94;4990369;28;20065;-79
2023/12/30 06:45:17;;;;;;;5.82;2.40;;;;;;;5.27;90.24;98320.47;4989554;28;20030;-81
2023/12/30 06:47:43;;;;;;;8.85;2.55;;;;;;;5.16;90.26;98313.31;4971709;28;20066;-78
2023/12/30 06:50:10;;;;;;;5.38;2.25;;;;;;;5.26;90.49;98313.59;4967966;28;20034;-79
2023/12/30 06:52:36;;;;;;;3.10;2.22;;;;;;;5.32;90.05;98321.41;4989560;28;20118;-79
2023/12/30 06:55:01;;;;;;;2.90;2.15;;;;;;;5.44;90.17;98332.00;4998055;28;20035;-80
2023/12/30 06:57:27;;;;;;;6.25;2.85;;;;;;;5.28;90.18;98330.84;4980930;28;20038;-78
2023/12/30 06:59:52;;;;;;;8.05;2.38;;;;;;;5.27;90.58;98334.50;4992935;28;20084;-79
2023/12/30 07:02:17;;;;;;;9.57;4.10;;;;;;;5.33;90.90;98330.94;4992695;28;20030;-77
2023/12/30 07:04:43;;;;;;;5.95;2.25;;;;;;;5.31;90.71;98322.44;4993272;28;20058;-78
2023/12/30 07:07:08;;;;;;;4.30;1.95;;;;;;;5.36;90.70;98334.97;5001396;28;20030;-79
2023/12/30 07:09:33;;;;;;;9.90;2.45;;;;;;;5.42;90.32;98338.56;4996816;28;20030;-79
2023/12/30 07:11:59;;;;;;;8.32;2.67;;;;;;;5.28;90.52;98332.69;4991695;28;20080;-78
2023/12/30 07:14:24;;;;;;;6.60;2.10;;;;;;;5.37;90.09;98351.69;4990489;28;20393;-78
2023/12/30 07:16:50;;;;;;;7.45;2.00;;;;;;;5.28;90.42;98372.38;4994346;28;20465;-78
2023/12/30 07:19:16;;;;;;;4.88;3.33;;;;;;;5.18;89.81;98366.78;4993370;28;20573;-77
2023/12/30 07:21:41;;;;;;;6.90;1.83;;;;;;;5.21;90.82;98376.94;4991662;28;20041;-78
2023/12/30 07:24:07;;;;;;;5.45;2.35;;;;;;;5.23;90.28;98372.22;4990762;28;20376;-78
2023/12/30 07:26:32;;;;;;;9.73;2.65;;;;;;;5.35;90.63;98380.19;4994132;28;20029;-80
2023/12/30 07:28:59;;;;;;;5.50;2.15;;;;;;;5.14;90.22;98376.22;4990751;28;20048;-80
2023/12/30 07:31:25;;;;;;;6.55;1.77;;;;;;;5.19;90.66;98379.00;4978381;28;20030;-79
2023/12/30 07:33:51;;;;;;;7.63;1.80;;;;;;;5.23;90.42;98388.09;4980083;28;20637;-78
2023/12/30 07:36:16;;;;;;;9.27;1.90;;;;;;;5.08;90.32;98385.88;4988536;28;20038;-78
2023/12/30 07:38:41;;;;;;;6.30;2.72;;;;;;;5.00;90.11;98388.03;4987964;28;20486;-78
2023/12/30 07:41:07;;;;;;;10.98;2.70;;;;;;;5.27;90.68;98397.19;4988417;28;20034;-80
2023/12/30 07:43:32;;;;;;;8.73;3.13;;;;;;;5.03;90.37;98403.44;4986862;28;20026;-79
2023/12/30 07:45:57;;;;;;;12.07;2.75;;;;;;;5.28;89.97;98401.47;4989629;28;20034;-77
2023/12/30 07:48:23;;;;;;;12.43;4.45;;;;;;;5.14;89.98;98400.84;4996535;28;20077;-78
2023/12/30 07:50:48;;;;;;;7.13;3.13;;;;;;;5.36;90.29;98401.13;4974545;28;20031;-77
2023/12/30 07:53:14;;;;;;;17.00;5.68;;;;;;;5.04;89.52;98402.41;4983724;28;20356;-76
2023/12/30 07:55:39;;;;;;;20.50;6.03;;;;;;;5.25;90.16;98417.78;4996211;28;20092;-76
2023/12/30 07:58:04;;;;;;;14.00;4.53;;;;;;;5.21;89.66;98406.84;4987454;28;20391;-78
2023/12/30 08:00:30;;;;;;;13.77;4.68;;;;;;;5.14;90.08;98400.03;5013839;28;20100;-77
2023/12/30 08:02:55;;;;;;;11.02;3.97;;;;;;;5.27;89.98;98405.94;4991707;28;20068;-78
2023/12/30 08:05:20;;;;;;;14.57;5.18;;;;;;;5.05;89.16;98415.41;4997966;28;20486;-76
2023/12/30 08:07:46;;;;;;;11.90;4.43;;;;;;;5.21;89.08;98398.09;4987725;28;20030;-77
2023/12/30 08:10:11;;;;;;;9.80;3.88;;;;;;;5.20;89.48;98407.88;4989179;28;20042;-77
2023/12/30 08:12:37;;;;;;;4.75;3.28;;;;;;;5.13;90.20;98399.22;4980571;28;20422;-76
2023/12/30 08:15:04;;;;;;;7.07;3.28;;;;;;;4.97;90.09;98396.41;4983415;28;20501;-77
2023/12/30 08:17:30;;;;;;;13.27;3.97;;;;;;;5.21;89.67;98398.09;4996750;28;20509;-76
2023/12/30 08:19:55;;;;;;;13.40;3.47;;;;;;;5.19;90.19;98397.53;4992564;28;20038;-77
2023/12/30 08:22:22;;;;;;;12.75;3.90;;;;;;;5.17;89.55;98407.53;4989604;28;20039;-77
2023/12/30 08:24:50;;;;;;;11.68;3.47;;;;;;;5.23;89.65;98409.25;4994937;28;20403;-76
2023/12/30 08:27:15;;;;;;;4.30;1.70;;;;;;;5.27;89.29;98415.72;4975195;28;20031;-76
2023/12/30 08:29:41;;;;;;;9.00;3.00;;;;;;;5.21;90.04;98422.72;4990948;28;20088;-76
2023/12/30 08:32:06;;;;;;;7.93;2.40;;;;;;;5.23;89.77;98425.13;4994041;28;20169;-78
2023/12/30 08:34:32;;;;;;;5.28;2.75;;;;;;;5.23;89.33;98419.84;4997679;28;20057;-77
2023/12/30 08:36:58;;;;;;;9.25;2.25;;;;;;;5.14;90.09;98421.19;5010572;28;20108;-76
2023/12/30 08:39:25;;;;;;;3.40;2.13;;;;;;;5.14;89.75;98424.66;4987263;28;20030;-77
2023/12/30 08:41:52;;;;;;;5.95;2.10;;;;;;;5.27;90.17;98431.59;4992482;28;20027;-78
2023/12/30 08:44:17;;;;;;;4.60;1.90;;;;;;;5.20;90.22;98420.28;4993515;28;20058;-77
2023/12/30 08:46:43;;;;;;;7.90;2.05;;;;;;;5.16;90.00;98425.22;4986387;28;20116;-78
2023/12/30 08:49:08;;;;;;;4.80;2.35;;;;;;;5.22;90.40;98434.13;4987928;28;20307;-77
2023/12/30 08:51:33;;;;;;;4.28;2.10;;;;;;;5.28;90.32;98443.78;4987783;28;20490;-77
2023/12/30 08:53:59;;;;;;;9.48;2.17;;;;;;;5.21;89.83;98451.00;4985606;28;20030;-76
2023/12/30 08:56:30;;;;;;;5.97;1.90;;;;;;;5.31;90.15;98449.44;4990583;28;20038;-77
2023/12/30 08:58:55;;;;;;;8.55;2.72;;;;;;;5.25;91.58;98455.63;4981841;28;20048;-77
2023/12/30 09:01:21;;;;;;;10.18;2.35;;;;;;;5.33;91.32;98473.03;4981274;28;22812;-77
2023/12/30 09:03:46;;;;;;;4.82;1.75;;;;;;;5.43;91.07;98470.66;4991481;28;20517;-76
2023/12/30 09:06:14;;;;;;;2.88;1.63;;;;;;;5.38;90.50;98462.56;5005536;28;20045;-76
2023/12/30 09:08:41;;;;;;;6.22;2.33;;;;;;;5.40;91.07;98465.00;4996675;28;20100;-77
2023/12/30 09:11:17;;;;;;;6.93;2.88;;;;;;;5.51;90.40;98464.22;4986835;28;20093;-75
2023/12/30 09:13:42;;;;;;;6.00;2.00;;;;;;;5.38;90.74;98470.50;4992426;28;20487;-82
2023/12/30 09:16:07;;;;;;;9.15;2.30;;;;;;;5.45;91.53;98479.19;4976617;28;20088;-76
2023/12/30 09:18:33;;;;;;;8.98;2.22;;;;;;;5.44;90.96;98464.31;4989733;28;20645;-75
2023/12/30 09:20:58;;;;;;;12.27;2.20;;;;;;;5.47;90.79;98478.94;4988776;28;20387;-76
2023/12/30 09:23:24;;;;;;;4.18;2.13;;;;;;;5.44;91.45;98492.66;4984630;28;20026;-75
2023/12/30 09:25:49;;;;;;;9.65;1.95;;;;;;;5.56;91.46;98490.84;4984443;28;20027;-76
2023/12/30 09:28:14;;;;;;;6.10;2.30;;;;;;;5.51;91.19;98502.09;4989990;28;20029;-76
2023/12/30 09:30:40;;;;;;;6.05;2.22;;;;;;;5.57;91.35;98511.00;4983094;28;20057;-76
2023/12/30 09:33:05;;;;;;;8.30;3.13;;;;;;;5.57;91.21;98501.19;4984513;28;20038;-76
2023/12/30 09:35:31;;;;;;;13.55;2.25;;;;;;;5.37;92.12;98521.03;4989484;28;20037;-76
2023/12/30 09:37:57;;;;;;;6.95;2.05;;;;;;;5.65;90.83;98515.97;4985555;28;20057;-75
2023/12/30 09:40:22;;;;;;;5.03;1.75;;;;;;;5.70;91.12;98527.47;4984430;28;20498;-76
2023/12/30 09:42:50;;;;;;;9.57;2.25;;;;;;;5.64;90.75;98538.16;4998136;28;20511;-76
2023/12/30 09:45:16;;;;;;;4.53;2.35;;;;;;;5.53;91.31;98542.38;4988558;28;20038;-76
2023/12/30 09:47:44;;;;;;;8.35;2.10;;;;;;;5.73;91.06;98545.59;4989909;28;20045;-76
2023/12/30 09:50:09;;;;;;;3.90;2.20;;;;;;;5.78;90.36;98543.06;4979701;28;20775;-76
2023/12/30 09:52:35;;;;;;;11.18;3.78;;;;;;;5.81;90.55;98549.75;4985962;28;20050;-76
2023/12/30 09:55:00;;;;;;;9.20;2.60;;;;;;;5.87;90.00;98559.47;4996218;28;20041;-75
2023/12/30 09:57:26;;;;;;;5.60;2.35;;;;;;;5.97;90.06;98555.25;4990613;28;20031;-76
2023/12/30 09:59:54;;;;;;;6.97;2.13;;;;;;;5.95;90.36;98559.16;4989079;28;20057;-76
2023/12/30 10:02:19;;;;;;;12.23;3.50;;;;;;;6.03;90.59;98572.88;4999705;28;20488;-76
2023/12/30 10:04:45;;;;;;;7.47;2.78;;;;;;;6.04;90.06;98571.88;4982320;28;20180;-76
2023/12/30 10:07:11;;;;;;;12.20;2.72;;;;;;;6.03;89.33;98570.25;4991140;28;20026;-76
2023/12/30 10:09:37;;;;;;;10.65;2.80;;;;;;;6.17;89.34;98567.38;4992033;28;20028;-76
2023/12/30 10:12:03;;;;;;;15.60;4.28;;;;;;;6.10;89.95;98564.03;4989260;28;20034;-76
2023/12/30 10:14:28;;;;;;;26.20;4.97;;;;;;;6.15;90.54;98572.13;4987540;28;20049;-76
2023/12/30 10:16:53;;;;;;;15.18;4.22;;;;;;;6.07;90.50;98570.63;4991548;28;20034;-76
2023/12/30 10:19:19;;;;;;;7.35;2.65;;;;;;;6.11;91.88;98574.41;4986502;28;20545;-75
2023/12/30 10:21:44;;;;;;;4.70;2.33;;;;;;;6.35;89.65;98564.66;4998333;28;20029;-76
2023/12/30 10:24:10;;;;;;;3.92;2.80;;;;;;;6.44;90.27;98571.25;4989817;28;20055;-76
2023/12/30 10:26:37;;;;;;;5.57;2.40;;;;;;;6.45;89.56;98557.78;4995386;28;20038;-77
2023/12/30 10:29:05;;;;;;;7.15;1.88;;;;;;;6.41;88.72;98563.75;4976952;28;20506;-77
2023/12/30 10:31:30;;;;;;;4.65;2.10;;;;;;;6.46;89.46;98570.00;4986440;28;20390;-76
2023/12/30 10:33:56;;;;;;;8.48;3.15;;;;;;;6.45;88.84;98564.91;4988655;28;20034;-77
2023/12/30 10:36:22;;;;;;;14.20;5.38;;;;;;;6.27;89.89;98565.00;4989303;28;20867;-76
2023/12/30 10:38:48;;;;;;;22.70;4.53;;;;;;;6.16;90.79;98566.56;4987524;28;20035;-75
2023/12/30 10:41:14;;;;;;;3.05;2.13;;;;;;;6.50;89.44;98567.69;4977702;28;20106;-76
2023/12/30 10:43:39;;;;;;;58.55;11.93;;;;;;;6.34;91.14;98568.34;5000293;28;20072;-77
2023/12/30 10:46:10;;;;;;;9.68;2.85;;;;;;;6.42;89.78;98568.03;5000674;28;20081;-77
2023/12/30 10:49:03;;;;;;;23.63;5.85;;;;;;;6.32;89.85;98567.75;4999649;28;20073;-76
2023/12/30 10:51:32;;;;;;;13.00;3.08;;;;;;;6.55;89.65;98551.91;4995903;28;20058;-76
2023/12/30 10:54:05;;;;;;;8.35;3.42;;;;;;;6.51;90.37;98553.41;4981425;28;20387;-76
2023/12/30 10:56:39;;;;;;;6.78;3.03;;;;;;;6.61;88.95;98549.16;4979293;28;20030;-76
2023/12/30 10:59:05;;;;;;;11.02;3.42;;;;;;;6.48;89.90;98541.41;4985446;28;20077;-76
2023/12/30 11:01:33;;;;;;;10.70;3.53;;;;;;;6.55;89.15;98543.97;4988332;28;20062;-77
2023/12/30 11:04:01;;;;;;;6.60;2.92;;;;;;;6.59;89.04;98532.66;4985441;28;20030;-76
2023/12/30 11:06:32;;;;;;;8.80;3.10;;;;;;;6.48;89.74;98543.25;4984258;28;20073;-75
2023/12/30 11:08:58;;;;;;;5.50;2.78;;;;;;;6.58;89.49;98544.28;4980876;28;20109;-76
2023/12/30 11:11:24;;;;;;;5.65;2.17;;;;;;;6.57;89.69;98549.84;4988326;28;20437;-76
2023/12/30 11:13:49;;;;;;;5.40;2.88;;;;;;;6.55;88.92;98547.38;4987748;28;20073;-77
2023/12/30 11:16:19;;;;;;;7.88;2.65;;;;;;;6.52;89.34;98550.53;4981379;28;20514;-76
2023/12/30 11:18:59;;;;;;;6.78;2.47;;;;;;;6.53;89.68;98554.78;4977141;28;20034;-75
2023/12/30 11:21:38;;;;;;;6.55;2.42;;;;;;;6.50;89.99;98554.44;4985236;28;20030;-76
2023/12/30 11:24:07;;;;;;;8.18;2.95;;;;;;;6.48;90.24;98544.06;4983947;28;20097;-76
2023/12/30 11:26:36;;;;;;;11.10;2.65;;;;;;;6.51;90.07;98545.47;4982577;28;20034;-76
2023/12/30 11:29:03;;;;;;;4.55;2.78;;;;;;;6.51;90.69;98540.94;4981367;28;20062;-78
2023/12/30 11:31:35;;;;;;;5.68;3.13;;;;;;;6.50;89.48;98531.38;4986996;28;20030;-77
2023/12/30 11:34:01;;;;;;;9.73;2.95;;;;;;;6.60;89.28;98528.97;4992081;28;20033;-77
2023/12/30 11:36:28;;;;;;;12.40;3.20;;;;;;;6.67;89.19;98523.53;4973531;28;20034;-77